createdAt,value
2022-10-18T00:00:46.715Z,87.43
2022-10-18T00:06:11.119Z,87.70
2022-10-18T00:11:14.272Z,87.24
2022-10-18T00:16:18.251Z,87.78
2022-10-18T00:21:23.538Z,87.67
2022-10-18T00:26:29.685Z,88.03
2022-10-18T00:31:35.966Z,88.20
2022-10-18T00:36:39.481Z,88.11
2022-10-18T00:41:43.409Z,88.56
2022-10-18T00:46:49.712Z,88.58
2022-10-18T00:51:55.968Z,88.96
2022-10-18T00:56:59.688Z,89.42
2022-10-18T01:02:03.252Z,89.35
2022-10-18T01:07:21.053Z,89.58
2022-10-18T01:12:42.284Z,89.83
2022-10-18T01:17:45.390Z,89.79
2022-10-18T01:22:50.951Z,89.77
2022-10-18T01:28:45.383Z,89.13
2022-10-18T01:33:56.058Z,89.60
2022-10-18T01:39:02.365Z,90.00
2022-10-18T01:44:10.786Z,89.60
2022-10-18T01:49:14.271Z,89.54
2022-10-18T01:54:27.923Z,89.82
2022-10-18T01:59:56.630Z,90.15
2022-10-18T02:05:24.617Z,90.28
2022-10-18T02:10:34.456Z,90.46
2022-10-18T02:15:44.448Z,90.45
2022-10-18T02:20:49.402Z,90.41
2022-10-18T02:25:53.835Z,90.54
2022-10-18T02:31:13.941Z,90.58
2022-10-18T02:36:33.837Z,90.49
2022-10-18T02:41:37.148Z,90.68
2022-10-18T02:46:40.867Z,90.66
2022-10-18T02:51:44.076Z,91.11
2022-10-18T02:56:46.956Z,91.47
2022-10-18T03:01:50.335Z,91.60
2022-10-18T03:06:53.289Z,91.09
2022-10-18T03:11:56.396Z,90.58
2022-10-18T03:16:59.398Z,90.62
2022-10-18T03:22:02.504Z,90.45
2022-10-18T03:27:05.507Z,90.78
2022-10-18T03:32:08.716Z,91.10
2022-10-18T03:37:12.436Z,91.51
2022-10-18T03:42:15.541Z,91.61
2022-10-18T03:47:19.060Z,91.67
2022-10-18T03:52:22.264Z,91.51
2022-10-18T03:57:25.577Z,91.37
2022-10-18T04:02:28.932Z,91.85
2022-10-18T04:07:32.454Z,92.17
2022-10-18T04:12:35.823Z,92.46
2022-10-18T04:17:40.150Z,92.65
2022-10-18T04:22:44.183Z,92.85
2022-10-18T04:27:47.898Z,92.97
2022-10-18T04:32:51.002Z,92.98
2022-10-18T04:37:54.313Z,92.98
2022-10-18T04:42:57.521Z,92.85
2022-10-18T04:48:01.344Z,92.72
2022-10-18T04:53:04.551Z,92.79
2022-10-18T04:58:07.451Z,92.93
2022-10-18T05:03:13.221Z,92.83
2022-10-18T05:08:16.432Z,93.00
2022-10-18T05:13:19.539Z,93.17
2022-10-18T05:18:22.742Z,93.05
2022-10-18T05:23:25.652Z,92.88
2022-10-18T05:28:44.106Z,92.37
2022-10-18T05:33:47.419Z,92.64
2022-10-18T05:38:50.937Z,92.73
2022-10-18T05:43:54.041Z,92.91
2022-10-18T05:48:57.277Z,93.05
2022-10-18T05:54:01.382Z,93.12
2022-10-18T05:59:12.415Z,93.05
2022-10-18T06:04:18.038Z,93.18
2022-10-18T06:09:21.242Z,93.21
2022-10-18T06:14:24.655Z,93.20
2022-10-18T06:19:27.968Z,93.10
2022-10-18T06:24:30.864Z,92.88
2022-10-18T06:29:34.073Z,93.06
2022-10-18T06:34:37.178Z,93.03
2022-10-18T06:39:41.318Z,92.72
2022-10-18T06:44:44.722Z,92.54
2022-10-18T06:49:48.237Z,92.48
2022-10-18T06:54:52.779Z,92.28
2022-10-18T06:59:55.881Z,92.23
2022-10-18T07:04:58.835Z,92.14
2022-10-18T07:10:01.823Z,92.00
2022-10-18T07:15:09.473Z,91.77
2022-10-18T07:20:13.123Z,91.40
2022-10-18T07:25:16.939Z,91.07
2022-10-18T07:30:20.352Z,90.87
2022-10-18T07:35:23.499Z,90.45
2022-10-18T07:40:26.873Z,90.15
2022-10-18T07:45:30.521Z,89.88
2022-10-18T07:50:34.209Z,89.78
2022-10-18T07:55:37.522Z,89.47
2022-10-18T08:00:40.931Z,89.26
2022-10-18T08:05:44.046Z,89.27
2022-10-18T08:10:47.652Z,89.01
2022-10-18T08:15:50.678Z,88.90
2022-10-18T08:20:53.968Z,88.80
2022-10-18T08:25:57.279Z,88.98
2022-10-18T08:31:13.081Z,89.30
2022-10-18T08:36:17.930Z,89.63
2022-10-18T08:41:45.611Z,89.81
2022-10-18T08:46:55.375Z,89.70
2022-10-18T08:51:59.194Z,89.46
2022-10-18T08:57:11.413Z,89.22
2022-10-18T09:02:39.611Z,88.90
2022-10-18T09:07:45.390Z,88.78
2022-10-18T09:13:18.894Z,88.81
2022-10-18T09:18:40.556Z,88.96
2022-10-18T09:24:06.576Z,89.41
2022-10-18T09:29:27.910Z,89.76
2022-10-18T09:34:58.054Z,89.86
2022-10-18T09:40:18.168Z,90.05
2022-10-18T09:45:38.154Z,89.98
2022-10-18T09:50:46.893Z,89.64
2022-10-18T09:56:02.287Z,89.59
2022-10-18T10:01:06.750Z,89.20
2022-10-18T10:06:12.701Z,89.00
2022-10-18T10:11:45.907Z,89.10
2022-10-18T10:16:48.910Z,89.22
2022-10-18T10:21:56.830Z,89.27
2022-10-18T10:27:07.179Z,89.37
2022-10-18T10:32:14.225Z,89.57
2022-10-18T10:37:25.603Z,89.52
2022-10-18T10:42:29.088Z,89.52
2022-10-18T10:47:34.578Z,89.47
2022-10-18T10:52:40.578Z,89.57
2022-10-18T10:57:50.283Z,89.78
2022-10-18T11:03:27.301Z,89.94
2022-10-18T11:08:41.398Z,90.15
2022-10-18T11:13:57.031Z,90.25
2022-10-18T11:20:01.114Z,90.12
2022-10-18T11:25:06.879Z,90.08
2022-10-18T11:30:24.934Z,90.15
2022-10-18T11:35:47.803Z,90.06
2022-10-18T11:41:12.943Z,89.97
2022-10-18T11:46:31.201Z,89.82
2022-10-18T11:52:09.357Z,90.01
2022-10-18T11:57:40.268Z,90.01
2022-10-18T12:03:21.673Z,90.05
2022-10-18T12:08:33.894Z,90.33
2022-10-18T12:13:46.727Z,90.52
2022-10-18T12:19:02.940Z,90.42
2022-10-18T12:24:16.356Z,90.34
2022-10-18T12:29:27.787Z,90.16
2022-10-18T12:34:47.174Z,90.21
2022-10-18T12:40:15.788Z,90.26
2022-10-18T12:45:28.804Z,90.31
2022-10-18T12:50:39.398Z,90.40
2022-10-18T12:55:48.849Z,90.43
2022-10-18T13:00:55.162Z,90.41
2022-10-18T13:06:01.780Z,90.31
2022-10-18T13:11:09.133Z,90.28
2022-10-18T13:16:41.112Z,90.41
2022-10-18T13:22:02.545Z,90.32
2022-10-18T13:27:46.460Z,90.44
2022-10-18T13:32:52.795Z,90.60
2022-10-18T13:38:00.297Z,90.57
2022-10-18T13:43:41.087Z,90.57
2022-10-18T13:48:51.460Z,90.76
2022-10-18T13:54:03.474Z,90.91
2022-10-18T13:59:25.574Z,91.12
2022-10-18T14:04:43.169Z,91.35
2022-10-18T14:09:56.103Z,91.47
2022-10-18T14:15:17.440Z,91.46
2022-10-18T14:20:32.718Z,91.44
2022-10-18T14:25:39.423Z,91.46
2022-10-18T14:31:10.190Z,91.62
2022-10-18T14:36:19.524Z,91.84
2022-10-18T14:41:27.135Z,92.03
2022-10-18T14:46:31.819Z,92.09
2022-10-18T14:51:37.038Z,92.26
2022-10-18T14:56:43.042Z,92.46
2022-10-18T15:01:57.171Z,92.52
2022-10-18T15:07:03.716Z,92.62
2022-10-18T15:12:08.251Z,92.71
2022-10-18T15:17:20.111Z,92.85
2022-10-18T15:22:31.900Z,92.99
2022-10-18T15:27:38.950Z,93.06
2022-10-18T15:32:52.671Z,92.75
2022-10-18T15:37:58.731Z,92.91
2022-10-18T15:43:26.024Z,93.03
2022-10-18T15:48:41.556Z,93.20
2022-10-18T15:53:52.609Z,93.33
2022-10-18T15:58:57.537Z,93.39
2022-10-18T16:04:05.350Z,93.46
2022-10-18T16:09:16.055Z,93.55
2022-10-18T16:14:21.646Z,93.69
2022-10-18T16:19:25.033Z,93.76
2022-10-18T16:24:28.238Z,93.88
2022-10-18T16:29:33.296Z,93.89
2022-10-18T16:34:36.701Z,93.97
2022-10-18T16:39:40.121Z,94.01
2022-10-18T16:44:44.040Z,94.10
2022-10-18T16:49:49.513Z,94.19
2022-10-18T16:54:53.223Z,94.26
2022-10-18T16:59:56.227Z,94.28
2022-10-18T17:04:59.434Z,94.27
2022-10-18T17:10:02.753Z,94.28
2022-10-18T17:15:09.546Z,94.29
2022-10-18T17:20:23.809Z,94.36
2022-10-18T17:25:28.623Z,94.44
2022-10-18T17:30:32.377Z,94.53
2022-10-18T17:35:36.007Z,94.58
2022-10-18T17:40:43.332Z,94.53
2022-10-18T17:45:53.808Z,94.55
2022-10-18T17:50:57.703Z,94.55
2022-10-18T17:56:05.224Z,94.55
2022-10-18T18:01:22.150Z,94.58
2022-10-18T18:06:35.224Z,94.67
2022-10-18T18:11:39.612Z,94.74
2022-10-18T18:16:46.387Z,94.72
2022-10-18T18:21:54.240Z,94.76
2022-10-18T18:26:58.560Z,94.80
2022-10-18T18:32:03.509Z,94.82
2022-10-18T18:37:08.356Z,94.83
2022-10-18T18:42:13.017Z,94.84
2022-10-18T18:52:22.186Z,94.85
2022-10-18T18:57:25.797Z,94.86
2022-10-18T19:02:29.210Z,94.87
2022-10-18T19:07:32.766Z,94.91
2022-10-18T19:12:36.854Z,94.94
2022-10-18T19:17:39.890Z,95.02
2022-10-18T19:22:44.232Z,94.84
2022-10-18T19:27:48.989Z,94.94
2022-10-18T19:32:59.830Z,95.04
2022-10-18T19:38:06.512Z,95.11
2022-10-18T19:43:10.135Z,95.12
2022-10-18T19:48:13.627Z,95.06
2022-10-18T19:53:17.386Z,95.04
2022-10-18T19:58:20.687Z,95.01
2022-10-18T20:03:24.718Z,94.98
2022-10-18T20:08:31.344Z,94.93
2022-10-18T20:13:35.429Z,94.95
2022-10-18T20:18:39.555Z,94.96
2022-10-18T20:23:44.404Z,94.97
2022-10-18T20:28:49.528Z,94.97
2022-10-18T20:34:04.743Z,95.00
2022-10-18T20:39:08.743Z,95.02
2022-10-18T20:44:14.548Z,95.06
2022-10-18T20:49:17.743Z,95.12
2022-10-18T20:54:20.960Z,95.19
2022-10-18T20:59:23.957Z,95.27
2022-10-18T21:04:27.367Z,95.26
2022-10-18T21:09:30.575Z,95.34
2022-10-18T21:14:33.782Z,95.45
2022-10-18T21:19:37.766Z,95.52
2022-10-18T21:24:42.763Z,95.55
2022-10-18T21:29:45.968Z,95.65
2022-10-18T21:34:49.073Z,95.74
2022-10-18T21:39:52.075Z,95.84
2022-10-18T21:44:55.285Z,95.88
2022-10-18T21:49:58.286Z,95.87
2022-10-18T21:55:01.397Z,95.97
2022-10-18T22:00:07.126Z,96.02
2022-10-18T22:05:12.210Z,96.06
2022-10-18T22:10:15.625Z,96.10
2022-10-18T22:15:18.833Z,96.22
2022-10-18T22:20:22.349Z,96.30
2022-10-18T22:25:25.454Z,96.26
2022-10-18T22:30:28.869Z,96.22
2022-10-18T22:35:33.205Z,96.20
2022-10-18T22:40:36.719Z,96.19
2022-10-18T22:45:40.807Z,96.19
2022-10-18T22:50:43.849Z,96.15
2022-10-18T22:55:49.002Z,96.05
2022-10-18T23:01:26.928Z,95.95
2022-10-18T23:06:31.674Z,95.89
2022-10-18T23:11:36.540Z,95.86
2022-10-18T23:16:39.826Z,95.90
2022-10-18T23:21:43.853Z,95.91
2022-10-18T23:26:47.062Z,95.91
2022-10-18T23:31:50.166Z,95.95
2022-10-18T23:36:53.274Z,95.91
2022-10-18T23:41:56.480Z,95.92
2022-10-18T23:47:00.100Z,95.92
2022-10-18T23:52:03.409Z,95.91
2022-10-18T23:57:06.412Z,95.91
